Skip Navigation LinksHome page > Weather > Current weather Skip Navigation Links

Current Weather

Ronald Reagan Washington National, Washington

For information only: do not use for flight planning or navigation.
Latest weather
Observation time Sunday, September 25, 2016 2:52 PM EDT
Local time Sunday, September 25, 2016 3:12 PM EDT
Flight conditions Visual Meteorological Conditions
Winds
Wind speed calm
Visibility 10 mi.
Sky condition
Ceiling 5,500 ft. broken clouds
Cloud layer broken clouds 5,500 ft.
Cloud layer broken clouds 25,000 ft.
Temperature 74°F
Dewpoint 46°F
Altimeter 30.16 in.Hg
Derived measurements
Relative humidity 37%
Density altitude 863 ft.
Sea-level pressure 30.16 in.Hg
Remarks
Automated weather observing station with precipitation discriminator.
METAR KDCA 251852Z 00000KT 10SM BKN055 BKN250 23/08 A3016 RMK AO2 SLP213 T02330078

Settings

Location code

InnerDrive.Weather 4.0.5722.1 Release CLR 4.0.30319.34209
Copyright ©2015 Inner Drive Technology. All rights reserved. Portions Copyright ©1986-2015 David Braverman.

Find weather

Site navigation


Skip Navigation Links

Place info

Page info

PayPal - The safer, easier way to pay online!

Return home.

Copyright ©2016 Inner Drive Technology. Purveyors of fine, hand-crafted computer software. Page printed 2016-09-25T19:12:38 UTC.